Logan, UT (84341)

10:57 PM MDT on September 30, 2014 (GMT -0600)
MesoWest LOGAN CAMPBELL HDQ UT US CAMPBELL | Change Station
CLOSE
Current Station
Personal Weather Station
Location: Logan, UT
Elevation: 4455 ft
Nearby Weather Stations

Elev 4455 ft 41.77 °N, 111.86 °W | Updated 57 minutes ago

Partly Cloudy
Partly Cloudy
47 °F
Feels Like 47 °F
N
2
Wind Variable Wind from ENE
Gusts 0.0 mph

Today
High -- | Low -- °F
--% Chance of Precip.
Yesterday
High -- | Low -- °F
Precip. -- in
7:23 AM 7:10 PM
Waxing Crescent, 43% visible
Pressure 29.97 in
Visibility 10.0 miles
Clouds Mostly Cloudy 5000 ft
Mostly Cloudy 7500 ft
Windchill 47 °F
Dew Point 45 °F
Humidity 94%
Rainfall -999.00 in
Snow Depth 1 in , 0 in , 1 in
UV 0 out of 12
Pollen 3.70 out of 12
PM2.5 Good
Flu Activity Not available.
METAR KBMC 010435Z AUTO 00000KT 10SM BKN050 BKN075 10/08 A2997 RMK AO1 T00970082

More Conditions Fewer Conditions

Pressure 29.97 in
Visibility 10.0 miles
Clouds Mostly Cloudy 5000 ft
Mostly Cloudy 7500 ft
Windchill 47 °F
Dew Point 45 °F
Humidity 94%
Rainfall -999.00 in
Snow Depth 1 in , 0 in , 1 in
UV 0 out of 12
Pollen 3.70 out of 12
PM2.5 Good
Flu Activity Not available.
METAR KBMC 010435Z AUTO 00000KT 10SM BKN050 BKN075 10/08 A2997 RMK AO1 T00970082

More Conditions Fewer Conditions

10-Day Weather Forecast

Almanac

Astronomy

Sep. 30, 2014 Rise Set
Actual Time 7:23 AM MDT 7:10 PM MDT
Civil Twilight 6:55 AM MDT 7:38 PM MDT
Nautical Twilight 6:23 AM MDT 8:10 PM MDT
Astronomical Twilight 5:50 AM MDT 8:43 PM MDT
Moon 1:38 PM MDT (9/30) 11:40 PM MDT (9/30)
Length of Visible Light 12h 42m
Length of Day
11h 47m
Tomorrow will be 2m 46s shorter.
Waxing Crescent, 43% of the Moon is Illuminated
Oct 1
Waxing Crescent
Oct 1
First Quarter
Oct 8
Full
Oct 15
Last Quarter
Oct 23
New

Yesterday's Extremes

State Highs State Lows

Community

WunderPhotos

Upload Photos

1,757,847 photos uploaded!

Nearby

Air Quality

  Air Quality AQ Index Pollutant
Yesterday Good
OZONE
Yesterday Good
PM2.5
Current Good
PM2.5

Snow Depth

Station Depth Elevation
Ben Lomond Peak 1 in 8000 ft
Smith & Morehouse 0 in 7600 ft
Clear Creek #1 1 in 9200 ft
Seeley Creek 0 in 10000 ft
Brighton 1 in 8750 ft

Earthquake Activity

City Distance Mag. Time & Date
No recent earthquake activity has been reported nearby.
Minimum magnitude displayed is 2.5.

Coastal Water Temperatures

Place Temperature
No Stations Reporting

Nearby Weather Stations